Eads, CO

1:10 AM MDT on October 01, 2016 (GMT -0600)
Kit Carson | | Change Station

Elev 4301 ft 38.77 °N, 102.79 °W | Updated 11 seconds ago

Clear
Clear
54.5 °F
Feels Like 54.5 °F
N
4.7
Wind Variable Wind from East
Gusts 6.0 mph

Today
High -- | Low -- °F
--% Chance of Precip.
Yesterday
High -- | Low -- °F
Precip. -- in
Pressure 29.99 in
Visibility 10.0 miles
Clouds Clear
Dew Point 46 °F
Humidity 73%
Rainfall 0.00 in
Snow Depth Not available.
6:46 AM 6:32 PM
New Moon, 0% visible
METAR KLAA 010653Z AUTO 08005KT 10SM CLR 11/07 A3009 RMK AO2 SLP154 T01110072 403110067 TSNO $
Pressure 29.99 in
Visibility 10.0 miles
Clouds Clear
Dew Point 46 °F
Humidity 73%
Rainfall 0.00 in
Snow Depth Not available.
6:46 AM 6:32 PM
New Moon, 0% visible
METAR KLAA 010653Z AUTO 08005KT 10SM CLR 11/07 A3009 RMK AO2 SLP154 T01110072 403110067 TSNO $

10-Day Weather Forecast

Almanac

Astronomy

Oct. 01, 2016 Rise Set
Actual Time
Civil Twilight
Nautical Twilight
Astronomical Twilight
Moon
Length of Visible Light
Length of Day
Tomorrow will be .
, % of the Moon is Illuminated

Today's Extremes

State Highs State Lows

Community

WunderPhotos

Upload Photos

1,942,898 photos uploaded!

WunderBlog® & News

Nearby

Air Quality

  Air Quality AQ Index Pollutant
Not available.

Snow Depth

Station Depth Elevation

Earthquake Activity

City Distance Mag. Time & Date
Minimum magnitude displayed is 2.5.

Coastal Water Temperatures

Place Temperature

Stations

Nearby Weather Stations

Station Location Temp. Windchill Dew Point Humidity Wind Precip. Elev Updated Type
                   

Watches & Warnings

There are currently no watches in effect.